sensor_id;sensor_type;location;lat;lon;timestamp;pressure;altitude;pressure_sealevel;temperature;humidity
10652;BME280;5374;42.742;23.266;2023-03-16T00:00:36;94616.09;;;4.36;100.00
10652;BME280;5374;42.742;23.266;2023-03-16T00:03:23;94626.25;;;4.32;100.00
10652;BME280;5374;42.742;23.266;2023-03-16T00:06:10;94630.28;;;4.23;100.00
10652;BME280;5374;42.742;23.266;2023-03-16T00:08:58;94628.81;;;4.27;100.00
10652;BME280;5374;42.742;23.266;2023-03-16T00:11:46;94623.78;;;4.14;100.00
10652;BME280;5374;42.742;23.266;2023-03-16T00:14:33;94633.38;;;4.20;100.00
10652;BME280;5374;42.742;23.266;2023-03-16T00:17:20;94634.97;;;4.09;100.00
10652;BME280;5374;42.742;23.266;2023-03-16T00:20:09;94601.31;;;3.83;100.00
10652;BME280;5374;42.742;23.266;2023-03-16T00:22:56;94634.16;;;4.09;100.00
10652;BME280;5374;42.742;23.266;2023-03-16T00:25:45;94633.84;;;4.05;100.00
10652;BME280;5374;42.742;23.266;2023-03-16T00:28:34;94627.91;;;3.98;100.00
10652;BME280;5374;42.742;23.266;2023-03-16T00:31:21;94630.97;;;4.07;100.00
10652;BME280;5374;42.742;23.266;2023-03-16T00:34:09;94623.78;;;3.91;100.00
10652;BME280;5374;42.742;23.266;2023-03-16T00:36:57;94638.63;;;3.97;100.00
10652;BME280;5374;42.742;23.266;2023-03-16T00:39:45;94636.91;;;3.91;100.00
10652;BME280;5374;42.742;23.266;2023-03-16T00:42:33;94641.47;;;3.95;100.00
10652;BME280;5374;42.742;23.266;2023-03-16T00:45:21;94648.56;;;3.95;100.00
10652;BME280;5374;42.742;23.266;2023-03-16T00:48:09;94654.84;;;3.94;100.00
10652;BME280;5374;42.742;23.266;2023-03-16T00:50:57;94650.38;;;3.94;100.00
10652;BME280;5374;42.742;23.266;2023-03-16T00:53:45;94647.41;;;3.79;100.00
10652;BME280;5374;42.742;23.266;2023-03-16T00:56:32;94640.56;;;3.78;100.00
10652;BME280;5374;42.742;23.266;2023-03-16T00:59:20;94654.25;;;3.80;100.00
10652;BME280;5374;42.742;23.266;2023-03-16T01:02:08;94650.13;;;3.84;100.00
10652;BME280;5374;42.742;23.266;2023-03-16T01:04:56;94645.47;;;3.86;100.00
10652;BME280;5374;42.742;23.266;2023-03-16T01:07:43;94649.69;;;3.87;100.00
10652;BME280;5374;42.742;23.266;2023-03-16T01:10:30;94657.91;;;3.79;100.00
10652;BME280;5374;42.742;23.266;2023-03-16T01:13:17;94658.13;;;3.77;100.00
10652;BME280;5374;42.742;23.266;2023-03-16T01:16:07;94661.56;;;3.78;100.00
10652;BME280;5374;42.742;23.266;2023-03-16T01:18:55;94663.94;;;3.68;100.00
10652;BME280;5374;42.742;23.266;2023-03-16T01:21:42;94653.44;;;3.56;100.00
10652;BME280;5374;42.742;23.266;2023-03-16T01:24:29;94635.84;;;3.57;100.00
10652;BME280;5374;42.742;23.266;2023-03-16T01:27:16;94666.44;;;3.63;100.00
10652;BME280;5374;42.742;23.266;2023-03-16T01:30:04;94670.31;;;3.60;100.00
10652;BME280;5374;42.742;23.266;2023-03-16T01:32:53;94652.19;;;3.59;100.00
10652;BME280;5374;42.742;23.266;2023-03-16T01:35:40;94666.91;;;3.60;100.00
10652;BME280;5374;42.742;23.266;2023-03-16T01:38:27;94670.88;;;3.51;100.00
10652;BME280;5374;42.742;23.266;2023-03-16T01:41:16;94652.22;;;3.40;100.00
10652;BME280;5374;42.742;23.266;2023-03-16T01:44:03;94675.97;;;3.46;100.00
10652;BME280;5374;42.742;23.266;2023-03-16T01:46:50;94681.81;;;3.48;100.00
10652;BME280;5374;42.742;23.266;2023-03-16T01:49:39;94678.69;;;3.39;100.00
10652;BME280;5374;42.742;23.266;2023-03-16T01:52:28;94678.03;;;3.43;100.00
10652;BME280;5374;42.742;23.266;2023-03-16T01:55:18;94692.06;;;3.37;100.00
10652;BME280;5374;42.742;23.266;2023-03-16T01:58:05;94695.28;;;3.21;100.00
10652;BME280;5374;42.742;23.266;2023-03-16T02:00:53;94694.63;;;3.26;100.00
10652;BME280;5374;42.742;23.266;2023-03-16T02:03:41;94691.06;;;3.20;100.00
10652;BME280;5374;42.742;23.266;2023-03-16T02:06:30;94704.16;;;3.20;100.00
10652;BME280;5374;42.742;23.266;2023-03-16T02:09:18;94707.69;;;3.14;100.00
10652;BME280;5374;42.742;23.266;2023-03-16T02:12:06;94706.97;;;3.07;100.00
10652;BME280;5374;42.742;23.266;2023-03-16T02:14:54;94715.50;;;3.02;100.00
10652;BME280;5374;42.742;23.266;2023-03-16T02:17:43;94710.78;;;2.93;100.00
10652;BME280;5374;42.742;23.266;2023-03-16T02:20:35;94718.72;;;2.86;100.00
10652;BME280;5374;42.742;23.266;2023-03-16T02:23:29;94718.50;;;2.88;100.00
10652;BME280;5374;42.742;23.266;2023-03-16T02:26:23;94715.38;;;2.79;100.00
10652;BME280;5374;42.742;23.266;2023-03-16T02:29:28;94729.88;;;2.82;100.00
10652;BME280;5374;42.742;23.266;2023-03-16T02:32:20;94727.25;;;2.82;100.00
10652;BME280;5374;42.742;23.266;2023-03-16T02:35:09;94725.78;;;2.86;100.00
10652;BME280;5374;42.742;23.266;2023-03-16T02:37:57;94727.97;;;2.89;100.00
10652;BME280;5374;42.742;23.266;2023-03-16T02:40:44;94731.03;;;2.86;100.00
10652;BME280;5374;42.742;23.266;2023-03-16T02:43:41;94728.69;;;2.78;100.00
10652;BME280;5374;42.742;23.266;2023-03-16T02:46:29;94739.81;;;2.73;100.00
10652;BME280;5374;42.742;23.266;2023-03-16T02:49:25;94741.78;;;2.78;100.00
10652;BME280;5374;42.742;23.266;2023-03-16T02:52:13;94746.53;;;2.69;100.00
10652;BME280;5374;42.742;23.266;2023-03-16T02:55:00;94750.91;;;2.75;100.00
10652;BME280;5374;42.742;23.266;2023-03-16T02:57:47;94743.63;;;2.77;100.00
10652;BME280;5374;42.742;23.266;2023-03-16T03:00:34;94743.56;;;2.84;100.00
10652;BME280;5374;42.742;23.266;2023-03-16T03:03:23;94749.44;;;2.79;100.00
10652;BME280;5374;42.742;23.266;2023-03-16T03:06:11;94748.06;;;2.77;100.00
10652;BME280;5374;42.742;23.266;2023-03-16T03:08:59;94754.09;;;2.77;100.00
10652;BME280;5374;42.742;23.266;2023-03-16T03:11:46;94755.41;;;2.68;100.00
10652;BME280;5374;42.742;23.266;2023-03-16T03:14:33;94761.97;;;2.77;100.00
10652;BME280;5374;42.742;23.266;2023-03-16T03:17:23;94764.91;;;2.87;100.00
10652;BME280;5374;42.742;23.266;2023-03-16T03:20:15;94779.38;;;2.90;100.00
10652;BME280;5374;42.742;23.266;2023-03-16T03:23:04;94782.13;;;2.95;100.00
10652;BME280;5374;42.742;23.266;2023-03-16T03:25:51;94756.88;;;2.82;100.00
10652;BME280;5374;42.742;23.266;2023-03-16T03:28:38;94775.28;;;2.94;100.00
10652;BME280;5374;42.742;23.266;2023-03-16T03:31:25;94776.91;;;2.95;100.00
10652;BME280;5374;42.742;23.266;2023-03-16T03:34:13;94771.09;;;2.93;100.00
10652;BME280;5374;42.742;23.266;2023-03-16T03:37:00;94782.28;;;3.00;100.00
10652;BME280;5374;42.742;23.266;2023-03-16T03:39:49;94677.19;;;2.28;100.00
10652;BME280;5374;42.742;23.266;2023-03-16T03:42:38;94791.91;;;3.06;100.00
10652;BME280;5374;42.742;23.266;2023-03-16T03:45:25;94766.13;;;2.85;100.00
10652;BME280;5374;42.742;23.266;2023-03-16T03:48:12;94790.16;;;3.00;100.00
10652;BME280;5374;42.742;23.266;2023-03-16T03:51:01;94792.19;;;2.98;100.00
10652;BME280;5374;42.742;23.266;2023-03-16T03:53:48;94789.88;;;2.90;100.00
10652;BME280;5374;42.742;23.266;2023-03-16T03:56:37;94805.03;;;2.88;100.00
10652;BME280;5374;42.742;23.266;2023-03-16T03:59:24;94797.97;;;2.88;100.00
10652;BME280;5374;42.742;23.266;2023-03-16T04:02:12;94804.72;;;2.96;100.00
10652;BME280;5374;42.742;23.266;2023-03-16T04:04:59;94815.22;;;2.96;100.00
10652;BME280;5374;42.742;23.266;2023-03-16T04:07:46;94807.00;;;2.92;100.00
10652;BME280;5374;42.742;23.266;2023-03-16T04:10:39;94814.19;;;2.79;100.00
10652;BME280;5374;42.742;23.266;2023-03-16T04:13:28;94808.19;;;2.71;100.00
10652;BME280;5374;42.742;23.266;2023-03-16T04:16:15;94810.59;;;2.73;100.00
10652;BME280;5374;42.742;23.266;2023-03-16T04:19:02;94820.22;;;2.79;100.00
10652;BME280;5374;42.742;23.266;2023-03-16T04:21:50;94822.63;;;2.81;100.00
10652;BME280;5374;42.742;23.266;2023-03-16T04:24:37;94828.69;;;2.81;100.00
10652;BME280;5374;42.742;23.266;2023-03-16T04:27:25;94830.22;;;2.89;100.00
10652;BME280;5374;42.742;23.266;2023-03-16T04:30:14;94828.63;;;2.88;100.00
10652;BME280;5374;42.742;23.266;2023-03-16T04:33:01;94810.69;;;2.66;100.00
10652;BME280;5374;42.742;23.266;2023-03-16T04:35:49;94835.16;;;2.79;100.00
10652;BME280;5374;42.742;23.266;2023-03-16T04:38:37;94845.84;;;2.77;100.00
10652;BME280;5374;42.742;23.266;2023-03-16T04:41:25;94838.63;;;2.72;100.00
10652;BME280;5374;42.742;23.266;2023-03-16T04:44:12;94851.72;;;2.72;100.00
10652;BME280;5374;42.742;23.266;2023-03-16T04:47:00;94853.34;;;2.73;100.00
10652;BME280;5374;42.742;23.266;2023-03-16T04:49:48;94859.03;;;2.70;100.00
10652;BME280;5374;42.742;23.266;2023-03-16T04:52:35;94835.91;;;2.61;100.00
10652;BME280;5374;42.742;23.266;2023-03-16T04:55:22;94865.00;;;2.78;100.00
10652;BME280;5374;42.742;23.266;2023-03-16T04:58:09;94867.63;;;2.78;100.00
10652;BME280;5374;42.742;23.266;2023-03-16T05:00:58;94859.94;;;2.58;100.00
10652;BME280;5374;42.742;23.266;2023-03-16T05:03:46;94870.78;;;2.61;100.00
10652;BME280;5374;42.742;23.266;2023-03-16T05:06:34;94864.31;;;2.64;100.00
10652;BME280;5374;42.742;23.266;2023-03-16T05:09:21;94880.56;;;2.72;100.00
10652;BME280;5374;42.742;23.266;2023-03-16T05:12:09;94888.41;;;2.72;100.00
10652;BME280;5374;42.742;23.266;2023-03-16T05:14:56;94886.81;;;2.71;100.00
10652;BME280;5374;42.742;23.266;2023-03-16T05:17:43;94889.59;;;2.77;100.00
10652;BME280;5374;42.742;23.266;2023-03-16T05:20:32;94892.22;;;2.77;100.00
10652;BME280;5374;42.742;23.266;2023-03-16T05:23:21;94899.06;;;2.78;100.00
10652;BME280;5374;42.742;23.266;2023-03-16T05:26:08;94900.72;;;2.72;100.00
10652;BME280;5374;42.742;23.266;2023-03-16T05:28:56;94906.03;;;2.65;100.00
10652;BME280;5374;42.742;23.266;2023-03-16T05:31:43;94880.69;;;2.59;100.00
10652;BME280;5374;42.742;23.266;2023-03-16T05:34:32;94915.00;;;2.76;100.00
10652;BME280;5374;42.742;23.266;2023-03-16T05:37:21;94905.75;;;2.73;100.00
10652;BME280;5374;42.742;23.266;2023-03-16T05:40:11;94917.75;;;2.88;100.00
10652;BME280;5374;42.742;23.266;2023-03-16T05:43:02;94921.78;;;2.90;100.00
10652;BME280;5374;42.742;23.266;2023-03-16T05:45:49;94918.56;;;2.88;100.00
10652;BME280;5374;42.742;23.266;2023-03-16T05:48:36;94928.03;;;2.89;100.00
10652;BME280;5374;42.742;23.266;2023-03-16T05:51:23;94924.03;;;2.87;100.00
10652;BME280;5374;42.742;23.266;2023-03-16T05:54:14;94955.28;;;2.88;100.00
10652;BME280;5374;42.742;23.266;2023-03-16T05:57:01;94935.69;;;2.91;100.00
10652;BME280;5374;42.742;23.266;2023-03-16T05:59:51;94936.69;;;2.90;100.00
10652;BME280;5374;42.742;23.266;2023-03-16T06:02:39;94941.94;;;2.90;100.00
10652;BME280;5374;42.742;23.266;2023-03-16T06:05:28;94935.81;;;2.96;100.00
10652;BME280;5374;42.742;23.266;2023-03-16T06:08:16;94935.81;;;2.96;100.00
10652;BME280;5374;42.742;23.266;2023-03-16T06:11:05;94944.81;;;3.06;100.00
10652;BME280;5374;42.742;23.266;2023-03-16T06:13:52;94931.84;;;2.93;100.00
10652;BME280;5374;42.742;23.266;2023-03-16T06:16:42;94950.31;;;2.98;100.00
10652;BME280;5374;42.742;23.266;2023-03-16T06:19:29;94951.13;;;2.99;100.00
10652;BME280;5374;42.742;23.266;2023-03-16T06:22:16;94958.75;;;3.07;100.00
10652;BME280;5374;42.742;23.266;2023-03-16T06:25:04;94957.31;;;3.11;100.00
10652;BME280;5374;42.742;23.266;2023-03-16T06:27:53;94969.41;;;3.12;100.00
10652;BME280;5374;42.742;23.266;2023-03-16T06:30:40;94973.03;;;3.11;100.00
10652;BME280;5374;42.742;23.266;2023-03-16T06:33:27;94975.22;;;3.14;100.00
10652;BME280;5374;42.742;23.266;2023-03-16T06:36:14;94984.03;;;3.20;100.00
10652;BME280;5374;42.742;23.266;2023-03-16T06:39:01;94985.88;;;3.19;100.00
10652;BME280;5374;42.742;23.266;2023-03-16T06:41:49;94981.22;;;3.21;100.00
10652;BME280;5374;42.742;23.266;2023-03-16T06:44:37;94996.94;;;3.21;100.00
10652;BME280;5374;42.742;23.266;2023-03-16T06:47:24;94997.25;;;3.13;100.00
10652;BME280;5374;42.742;23.266;2023-03-16T06:50:13;94999.78;;;3.20;100.00
10652;BME280;5374;42.742;23.266;2023-03-16T06:53:01;94992.59;;;3.15;100.00
10652;BME280;5374;42.742;23.266;2023-03-16T06:55:48;95003.97;;;3.27;100.00
10652;BME280;5374;42.742;23.266;2023-03-16T06:58:36;95016.06;;;3.28;100.00
10652;BME280;5374;42.742;23.266;2023-03-16T07:01:24;95015.66;;;3.31;100.00
10652;BME280;5374;42.742;23.266;2023-03-16T07:04:12;95024.31;;;3.32;100.00
10652;BME280;5374;42.742;23.266;2023-03-16T07:06:59;95025.13;;;3.32;100.00
10652;BME280;5374;42.742;23.266;2023-03-16T07:09:46;95060.63;;;3.35;100.00
10652;BME280;5374;42.742;23.266;2023-03-16T07:12:33;94989.72;;;3.17;100.00
10652;BME280;5374;42.742;23.266;2023-03-16T07:15:21;95029.81;;;3.49;100.00
10652;BME280;5374;42.742;23.266;2023-03-16T07:18:12;95037.22;;;3.58;100.00
10652;BME280;5374;42.742;23.266;2023-03-16T07:20:59;95032.69;;;3.65;100.00
10652;BME280;5374;42.742;23.266;2023-03-16T07:23:46;95033.66;;;3.71;100.00
10652;BME280;5374;42.742;23.266;2023-03-16T07:26:33;95034.03;;;3.74;100.00
10652;BME280;5374;42.742;23.266;2023-03-16T07:29:21;95029.19;;;3.53;100.00
10652;BME280;5374;42.742;23.266;2023-03-16T07:32:08;95017.16;;;3.64;100.00
10652;BME280;5374;42.742;23.266;2023-03-16T07:34:57;95040.63;;;3.84;100.00
10652;BME280;5374;42.742;23.266;2023-03-16T07:37:45;95015.41;;;3.58;100.00
10652;BME280;5374;42.742;23.266;2023-03-16T07:40:32;95053.66;;;3.90;100.00
10652;BME280;5374;42.742;23.266;2023-03-16T07:43:20;95050.59;;;3.93;100.00
10652;BME280;5374;42.742;23.266;2023-03-16T07:46:07;95019.66;;;3.77;100.00
10652;BME280;5374;42.742;23.266;2023-03-16T07:48:58;95052.94;;;4.20;100.00
10652;BME280;5374;42.742;23.266;2023-03-16T07:51:47;95051.34;;;4.37;100.00
10652;BME280;5374;42.742;23.266;2023-03-16T07:54:34;95055.44;;;4.51;100.00
10652;BME280;5374;42.742;23.266;2023-03-16T07:57:21;95048.16;;;4.65;100.00
10652;BME280;5374;42.742;23.266;2023-03-16T08:00:10;95040.22;;;4.53;100.00
10652;BME280;5374;42.742;23.266;2023-03-16T08:02:58;95050.72;;;4.71;100.00
10652;BME280;5374;42.742;23.266;2023-03-16T08:05:46;95052.75;;;4.69;100.00
10652;BME280;5374;42.742;23.266;2023-03-16T08:08:35;95056.22;;;4.81;100.00
10652;BME280;5374;42.742;23.266;2023-03-16T08:11:22;95047.22;;;4.89;100.00
10652;BME280;5374;42.742;23.266;2023-03-16T08:14:09;95055.28;;;5.06;100.00
10652;BME280;5374;42.742;23.266;2023-03-16T08:16:56;95050.97;;;5.11;100.00
10652;BME280;5374;42.742;23.266;2023-03-16T08:19:44;95062.25;;;5.00;100.00
10652;BME280;5374;42.742;23.266;2023-03-16T08:22:32;95063.25;;;4.99;100.00
10652;BME280;5374;42.742;23.266;2023-03-16T08:25:22;95064.34;;;5.10;100.00
10652;BME280;5374;42.742;23.266;2023-03-16T08:28:10;95069.69;;;5.03;100.00
10652;BME280;5374;42.742;23.266;2023-03-16T08:30:57;95078.00;;;4.89;100.00
10652;BME280;5374;42.742;23.266;2023-03-16T08:33:47;95078.00;;;4.89;100.00
10652;BME280;5374;42.742;23.266;2023-03-16T08:36:36;95078.63;;;4.72;100.00
10652;BME280;5374;42.742;23.266;2023-03-16T08:39:23;95085.34;;;4.68;100.00
10652;BME280;5374;42.742;23.266;2023-03-16T08:42:13;95088.41;;;4.65;100.00
10652;BME280;5374;42.742;23.266;2023-03-16T08:45:01;95072.06;;;4.45;100.00
10652;BME280;5374;42.742;23.266;2023-03-16T08:47:54;95066.94;;;4.32;100.00
10652;BME280;5374;42.742;23.266;2023-03-16T08:50:42;95088.81;;;4.51;100.00
10652;BME280;5374;42.742;23.266;2023-03-16T08:53:29;95096.38;;;4.59;100.00
10652;BME280;5374;42.742;23.266;2023-03-16T08:56:16;95100.47;;;4.73;100.00
10652;BME280;5374;42.742;23.266;2023-03-16T08:59:05;95092.31;;;4.74;100.00
10652;BME280;5374;42.742;23.266;2023-03-16T09:01:53;95093.66;;;4.65;100.00
10652;BME280;5374;42.742;23.266;2023-03-16T09:04:41;95087.38;;;4.66;100.00
10652;BME280;5374;42.742;23.266;2023-03-16T09:07:28;95094.41;;;4.72;100.00
10652;BME280;5374;42.742;23.266;2023-03-16T09:10:15;95103.94;;;4.85;100.00
10652;BME280;5374;42.742;23.266;2023-03-16T09:13:03;95103.13;;;4.85;100.00
10652;BME280;5374;42.742;23.266;2023-03-16T09:15:52;95105.41;;;4.81;100.00
10652;BME280;5374;42.742;23.266;2023-03-16T09:18:40;95110.19;;;4.72;100.00
10652;BME280;5374;42.742;23.266;2023-03-16T09:21:27;95110.72;;;4.74;100.00
10652;BME280;5374;42.742;23.266;2023-03-16T09:24:14;95110.97;;;4.73;100.00
10652;BME280;5374;42.742;23.266;2023-03-16T09:27:01;95110.75;;;4.56;96.80
10652;BME280;5374;42.742;23.266;2023-03-16T09:29:49;95115.13;;;4.62;97.13
10652;BME280;5374;42.742;23.266;2023-03-16T09:32:41;95107.41;;;4.49;98.70
10652;BME280;5374;42.742;23.266;2023-03-16T09:35:29;95113.09;;;4.64;99.92
10652;BME280;5374;42.742;23.266;2023-03-16T09:38:17;95122.38;;;4.67;100.00
10652;BME280;5374;42.742;23.266;2023-03-16T09:41:08;95121.63;;;4.60;100.00
10652;BME280;5374;42.742;23.266;2023-03-16T09:44:04;95101.69;;;4.52;100.00
10652;BME280;5374;42.742;23.266;2023-03-16T09:46:57;95126.53;;;4.56;100.00
10652;BME280;5374;42.742;23.266;2023-03-16T09:49:48;95115.78;;;4.58;100.00
10652;BME280;5374;42.742;23.266;2023-03-16T09:52:42;95123.88;;;4.74;100.00
10652;BME280;5374;42.742;23.266;2023-03-16T09:55:31;95126.66;;;4.79;100.00
10652;BME280;5374;42.742;23.266;2023-03-16T09:58:20;95116.94;;;4.80;100.00
10652;BME280;5374;42.742;23.266;2023-03-16T10:01:13;95123.75;;;4.88;100.00
10652;BME280;5374;42.742;23.266;2023-03-16T10:04:14;95134.25;;;4.88;100.00
10652;BME280;5374;42.742;23.266;2023-03-16T10:07:16;95124.31;;;4.90;100.00
10652;BME280;5374;42.742;23.266;2023-03-16T10:10:19;95120.34;;;4.99;98.19
10652;BME280;5374;42.742;23.266;2023-03-16T10:13:20;95114.97;;;4.94;92.22
10652;BME280;5374;42.742;23.266;2023-03-16T10:16:17;95130.13;;;5.10;92.32
10652;BME280;5374;42.742;23.266;2023-03-16T10:19:10;95129.69;;;5.13;92.89
10652;BME280;5374;42.742;23.266;2023-03-16T10:22:00;95131.66;;;5.18;93.14
10652;BME280;5374;42.742;23.266;2023-03-16T10:24:57;95114.03;;;5.18;92.85
10652;BME280;5374;42.742;23.266;2023-03-16T10:27:47;95114.41;;;5.33;91.91
10652;BME280;5374;42.742;23.266;2023-03-16T10:30:37;95120.50;;;5.45;89.22
10652;BME280;5374;42.742;23.266;2023-03-16T10:33:26;95124.16;;;5.44;90.24
10652;BME280;5374;42.742;23.266;2023-03-16T10:36:18;95121.44;;;5.51;92.13
10652;BME280;5374;42.742;23.266;2023-03-16T10:39:13;95123.50;;;5.49;91.38
10652;BME280;5374;42.742;23.266;2023-03-16T10:42:13;95119.59;;;5.52;87.77
10652;BME280;5374;42.742;23.266;2023-03-16T10:45:02;95119.50;;;5.58;89.24
10652;BME280;5374;42.742;23.266;2023-03-16T10:47:50;95102.81;;;5.64;89.95
10652;BME280;5374;42.742;23.266;2023-03-16T10:50:37;95110.16;;;5.74;89.27
10652;BME280;5374;42.742;23.266;2023-03-16T10:53:27;95124.84;;;5.93;90.04
10652;BME280;5374;42.742;23.266;2023-03-16T10:56:20;95118.34;;;6.07;88.26
10652;BME280;5374;42.742;23.266;2023-03-16T10:59:14;95116.97;;;6.05;84.61
10652;BME280;5374;42.742;23.266;2023-03-16T11:02:13;95122.78;;;5.95;83.49
10652;BME280;5374;42.742;23.266;2023-03-16T11:05:11;95122.88;;;5.77;82.49
10652;BME280;5374;42.742;23.266;2023-03-16T11:08:01;95123.34;;;5.86;82.75
10652;BME280;5374;42.742;23.266;2023-03-16T11:10:55;95114.72;;;5.78;83.37
10652;BME280;5374;42.742;23.266;2023-03-16T11:13:45;95123.00;;;5.82;82.13
10652;BME280;5374;42.742;23.266;2023-03-16T11:16:38;95131.09;;;5.69;80.53
10652;BME280;5374;42.742;23.266;2023-03-16T11:19:29;95119.03;;;5.49;79.42
10652;BME280;5374;42.742;23.266;2023-03-16T11:22:19;95123.28;;;5.50;80.22
10652;BME280;5374;42.742;23.266;2023-03-16T11:25:12;95126.47;;;5.53;82.08
10652;BME280;5374;42.742;23.266;2023-03-16T11:28:07;95111.13;;;5.49;80.29
10652;BME280;5374;42.742;23.266;2023-03-16T11:31:08;95117.06;;;5.45;80.42
10652;BME280;5374;42.742;23.266;2023-03-16T11:33:59;95133.47;;;5.59;81.04
10652;BME280;5374;42.742;23.266;2023-03-16T11:36:49;95108.25;;;5.39;79.86
10652;BME280;5374;42.742;23.266;2023-03-16T11:39:50;95122.66;;;5.37;81.69
10652;BME280;5374;42.742;23.266;2023-03-16T11:42:50;95123.84;;;5.41;81.71
10652;BME280;5374;42.742;23.266;2023-03-16T11:45:47;95131.31;;;5.56;82.79
10652;BME280;5374;42.742;23.266;2023-03-16T11:48:39;95134.50;;;5.58;82.28
10652;BME280;5374;42.742;23.266;2023-03-16T11:51:34;95128.09;;;5.54;80.56
10652;BME280;5374;42.742;23.266;2023-03-16T11:54:38;95132.09;;;5.56;80.73
10652;BME280;5374;42.742;23.266;2023-03-16T11:57:40;95128.09;;;5.54;81.24
10652;BME280;5374;42.742;23.266;2023-03-16T12:00:35;95136.63;;;5.37;80.64
10652;BME280;5374;42.742;23.266;2023-03-16T12:07:02;95112.22;;;5.30;82.42
10652;BME280;5374;42.742;23.266;2023-03-16T12:10:07;95128.28;;;5.40;80.60
10652;BME280;5374;42.742;23.266;2023-03-16T12:13:13;95129.47;;;5.14;80.44
10652;BME280;5374;42.742;23.266;2023-03-16T12:16:04;95126.56;;;5.34;81.99
10652;BME280;5374;42.742;23.266;2023-03-16T12:18:58;95152.00;;;5.52;79.57
10652;BME280;5374;42.742;23.266;2023-03-16T12:21:59;95157.25;;;5.40;80.18
10652;BME280;5374;42.742;23.266;2023-03-16T12:24:48;95159.09;;;5.40;80.64
10652;BME280;5374;42.742;23.266;2023-03-16T12:27:37;95148.78;;;5.38;80.35
10652;BME280;5374;42.742;23.266;2023-03-16T12:30:35;95154.34;;;5.30;81.44
10652;BME280;5374;42.742;23.266;2023-03-16T12:33:37;95173.16;;;5.45;82.69
10652;BME280;5374;42.742;23.266;2023-03-16T12:36:40;95170.31;;;5.47;81.38
10652;BME280;5374;42.742;23.266;2023-03-16T12:40:03;95171.66;;;5.38;81.34
10652;BME280;5374;42.742;23.266;2023-03-16T12:43:03;95178.88;;;5.42;80.09
10652;BME280;5374;42.742;23.266;2023-03-16T12:46:00;95175.84;;;5.27;81.66
10652;BME280;5374;42.742;23.266;2023-03-16T12:48:52;95167.41;;;5.07;83.09
10652;BME280;5374;42.742;23.266;2023-03-16T12:51:42;95184.50;;;5.16;84.48
10652;BME280;5374;42.742;23.266;2023-03-16T12:54:30;95179.25;;;5.16;89.63
10652;BME280;5374;42.742;23.266;2023-03-16T12:57:23;95197.09;;;5.14;92.76
10652;BME280;5374;42.742;23.266;2023-03-16T13:03:01;95178.06;;;5.12;100.00
10652;BME280;5374;42.742;23.266;2023-03-16T13:05:53;95179.94;;;5.23;100.00
10652;BME280;5374;42.742;23.266;2023-03-16T13:08:42;95192.78;;;5.20;100.00
10652;BME280;5374;42.742;23.266;2023-03-16T13:11:43;95181.78;;;5.23;100.00
10652;BME280;5374;42.742;23.266;2023-03-16T13:14:38;95153.44;;;5.06;100.00
10652;BME280;5374;42.742;23.266;2023-03-16T13:17:29;95191.41;;;5.29;100.00
10652;BME280;5374;42.742;23.266;2023-03-16T13:20:24;95190.75;;;5.33;100.00
10652;BME280;5374;42.742;23.266;2023-03-16T13:23:24;95186.00;;;5.42;100.00
10652;BME280;5374;42.742;23.266;2023-03-16T13:26:13;95182.56;;;5.41;100.00
10652;BME280;5374;42.742;23.266;2023-03-16T13:29:07;95203.16;;;5.44;100.00
10652;BME280;5374;42.742;23.266;2023-03-16T13:32:07;95192.91;;;5.55;100.00
10652;BME280;5374;42.742;23.266;2023-03-16T13:35:04;95200.22;;;5.53;100.00
10652;BME280;5374;42.742;23.266;2023-03-16T13:37:52;95205.88;;;5.68;100.00
10652;BME280;5374;42.742;23.266;2023-03-16T13:40:44;95197.34;;;5.84;100.00
10652;BME280;5374;42.742;23.266;2023-03-16T13:43:32;95197.97;;;5.68;100.00
10652;BME280;5374;42.742;23.266;2023-03-16T13:46:27;95215.28;;;5.75;100.00
10652;BME280;5374;42.742;23.266;2023-03-16T13:49:16;95210.28;;;5.86;98.84
10652;BME280;5374;42.742;23.266;2023-03-16T13:52:04;95202.31;;;5.62;97.39
10652;BME280;5374;42.742;23.266;2023-03-16T13:54:52;95214.84;;;5.78;95.53
10652;BME280;5374;42.742;23.266;2023-03-16T13:57:40;95226.03;;;5.74;90.85
10652;BME280;5374;42.742;23.266;2023-03-16T14:00:31;95231.81;;;5.53;90.45
10652;BME280;5374;42.742;23.266;2023-03-16T14:03:19;95231.53;;;5.42;93.47
10652;BME280;5374;42.742;23.266;2023-03-16T14:06:21;95225.84;;;5.27;94.85
10652;BME280;5374;42.742;23.266;2023-03-16T14:09:14;95220.84;;;5.07;98.00
10652;BME280;5374;42.742;23.266;2023-03-16T14:12:04;95226.59;;;4.98;98.45
10652;BME280;5374;42.742;23.266;2023-03-16T14:14:54;95232.91;;;4.97;99.79
10652;BME280;5374;42.742;23.266;2023-03-16T14:17:41;95234.38;;;4.93;100.00
10652;BME280;5374;42.742;23.266;2023-03-16T14:20:29;95239.84;;;4.91;100.00
10652;BME280;5374;42.742;23.266;2023-03-16T14:23:19;95239.09;;;4.84;100.00
10652;BME280;5374;42.742;23.266;2023-03-16T14:26:10;95248.03;;;4.83;100.00
10652;BME280;5374;42.742;23.266;2023-03-16T14:29:01;95233.09;;;4.77;100.00
10652;BME280;5374;42.742;23.266;2023-03-16T14:31:50;95240.50;;;4.68;100.00
10652;BME280;5374;42.742;23.266;2023-03-16T14:34:38;95237.69;;;4.63;100.00
10652;BME280;5374;42.742;23.266;2023-03-16T14:37:33;95241.34;;;4.62;100.00
10652;BME280;5374;42.742;23.266;2023-03-16T14:40:31;95255.97;;;4.76;100.00
10652;BME280;5374;42.742;23.266;2023-03-16T14:43:28;95238.34;;;4.59;100.00
10652;BME280;5374;42.742;23.266;2023-03-16T14:46:24;95257.72;;;4.64;100.00
10652;BME280;5374;42.742;23.266;2023-03-16T14:49:19;95262.97;;;4.64;100.00
10652;BME280;5374;42.742;23.266;2023-03-16T14:52:15;95239.22;;;4.53;100.00
10652;BME280;5374;42.742;23.266;2023-03-16T14:55:12;95270.44;;;4.67;100.00
10652;BME280;5374;42.742;23.266;2023-03-16T14:58:01;95263.63;;;4.60;100.00
10652;BME280;5374;42.742;23.266;2023-03-16T15:00:48;95255.06;;;4.46;100.00
10652;BME280;5374;42.742;23.266;2023-03-16T15:03:38;95274.56;;;4.57;100.00
10652;BME280;5374;42.742;23.266;2023-03-16T15:06:27;95263.69;;;4.53;100.00
10652;BME280;5374;42.742;23.266;2023-03-16T15:09:29;95273.94;;;4.61;100.00